createdAt,value
2022-11-13T00:00:28.786Z,30.10
2022-11-13T00:03:30.327Z,28.27
2022-11-13T00:06:31.849Z,24.23
2022-11-13T00:09:33.361Z,23.17
2022-11-13T00:12:34.913Z,21.35
2022-11-13T00:15:36.435Z,19.77
2022-11-13T00:18:39.696Z,21.23
2022-11-13T00:21:41.243Z,19.95
2022-11-13T00:24:42.798Z,20.42
2022-11-13T00:27:44.317Z,20.05
2022-11-13T00:30:45.838Z,19.80
2022-11-13T00:37:09.067Z,18.17
2022-11-13T00:40:11.000Z,17.90
2022-11-13T00:43:12.532Z,17.85
2022-11-13T00:46:14.093Z,16.83
2022-11-13T00:49:16.322Z,14.90
2022-11-13T00:52:17.829Z,15.65
2022-11-13T00:55:19.434Z,16.85
2022-11-13T00:58:21.190Z,18.88
2022-11-13T01:04:24.635Z,16.85
2022-11-13T01:07:26.196Z,16.50
2022-11-13T01:10:27.784Z,16.42
2022-11-13T01:13:29.487Z,16.48
2022-11-13T01:16:31.119Z,16.40
2022-11-13T01:19:32.693Z,15.45
2022-11-13T01:22:34.257Z,15.73
2022-11-13T01:25:36.177Z,14.20
2022-11-13T01:28:39.143Z,12.32
2022-11-13T01:31:40.788Z,11.85
2022-11-13T01:34:42.351Z,9.85
2022-11-13T01:37:43.910Z,10.15
2022-11-13T01:40:48.434Z,9.63
2022-11-13T01:43:50.436Z,9.98
2022-11-13T01:46:56.621Z,9.63
2022-11-13T01:50:02.218Z,8.60
2022-11-13T01:53:04.260Z,9.13
2022-11-13T01:56:07.350Z,9.55
2022-11-13T01:59:13.845Z,9.35
2022-11-13T02:02:15.409Z,12.27
2022-11-13T02:05:17.141Z,15.75
2022-11-13T02:08:18.711Z,16.45
2022-11-13T02:11:20.733Z,14.20
2022-11-13T02:14:25.306Z,15.38
2022-11-13T02:17:32.578Z,15.85
2022-11-13T02:20:40.774Z,15.15
2022-11-13T02:24:14.951Z,15.18
2022-11-13T02:27:41.229Z,14.93
2022-11-13T02:30:43.043Z,12.65
2022-11-13T02:33:44.572Z,12.68
2022-11-13T02:36:46.109Z,12.48
2022-11-13T02:39:47.670Z,11.93
2022-11-13T02:42:49.249Z,12.77
2022-11-13T02:45:50.802Z,11.73
2022-11-13T02:48:52.384Z,12.60
2022-11-13T02:51:54.000Z,11.48
2022-11-13T02:54:55.523Z,12.23
2022-11-13T02:57:57.243Z,11.60
2022-11-13T03:01:02.507Z,11.60
2022-11-13T03:04:04.183Z,10.90
2022-11-13T03:07:05.764Z,11.50
2022-11-13T03:10:08.554Z,10.07
2022-11-13T03:13:10.076Z,9.82
2022-11-13T03:16:14.965Z,9.13
2022-11-13T03:19:16.487Z,8.82
2022-11-13T03:22:18.160Z,9.55
2022-11-13T03:25:19.707Z,10.38
2022-11-13T03:28:21.290Z,10.52
2022-11-13T03:31:22.838Z,11.93
2022-11-13T03:34:24.396Z,14.30
2022-11-13T03:37:25.931Z,13.70
2022-11-13T03:40:27.482Z,13.32
2022-11-13T03:43:29.095Z,12.82
2022-11-13T03:46:30.792Z,13.90
2022-11-13T03:49:32.401Z,11.40
2022-11-13T03:52:33.936Z,10.50
2022-11-13T03:55:35.535Z,10.60
2022-11-13T03:58:40.093Z,9.73
2022-11-13T04:01:42.084Z,10.45
2022-11-13T04:04:44.627Z,5.18
2022-11-13T04:07:46.235Z,3.92
2022-11-13T04:10:47.797Z,4.65
2022-11-13T04:13:49.376Z,4.38
2022-11-13T04:16:50.926Z,4.22
2022-11-13T04:19:52.458Z,4.30
2022-11-13T04:22:55.500Z,4.75
2022-11-13T04:25:57.454Z,4.13
2022-11-13T04:28:58.970Z,4.10
2022-11-13T04:32:00.608Z,4.03
2022-11-13T04:35:02.471Z,3.90
2022-11-13T04:38:04.008Z,3.97
2022-11-13T04:41:24.332Z,4.43
2022-11-13T04:44:25.865Z,4.07
2022-11-13T04:47:27.387Z,3.03
2022-11-13T04:50:29.100Z,2.88
2022-11-13T04:53:30.719Z,2.90
2022-11-13T04:56:32.409Z,3.30
2022-11-13T04:59:33.943Z,3.20
2022-11-13T05:02:35.541Z,2.70
2022-11-13T05:05:37.106Z,2.85
2022-11-13T05:08:39.509Z,3.90
2022-11-13T05:11:41.057Z,3.70
2022-11-13T05:14:42.615Z,3.90
2022-11-13T05:17:44.186Z,3.42
2022-11-13T05:20:46.029Z,3.47
2022-11-13T05:23:47.614Z,3.72
2022-11-13T05:26:49.162Z,2.95
2022-11-13T05:29:50.699Z,4.25
2022-11-13T05:32:52.395Z,3.90
2022-11-13T05:35:53.944Z,3.88
2022-11-13T05:38:55.494Z,3.63
2022-11-13T05:41:57.135Z,3.38
2022-11-13T05:44:58.688Z,4.30
2022-11-13T05:48:00.242Z,4.70
2022-11-13T05:51:16.187Z,4.95
2022-11-13T05:54:17.725Z,5.10
2022-11-13T05:57:19.308Z,4.80
2022-11-13T06:00:20.853Z,4.57
2022-11-13T06:03:22.421Z,5.70
2022-11-13T06:06:25.845Z,5.38
2022-11-13T06:09:27.442Z,5.15
2022-11-13T06:12:29.824Z,5.80
2022-11-13T06:15:31.329Z,5.30
2022-11-13T06:18:34.110Z,5.10
2022-11-13T06:21:40.123Z,5.13
2022-11-13T06:24:41.739Z,4.95
2022-11-13T06:27:43.292Z,5.10
2022-11-13T06:30:44.893Z,5.20
2022-11-13T06:33:46.876Z,5.60
2022-11-13T06:36:48.383Z,5.70
2022-11-13T06:39:49.973Z,5.75
2022-11-13T06:42:52.695Z,5.68
2022-11-13T06:45:54.885Z,5.75
2022-11-13T06:48:56.711Z,6.22
2022-11-13T06:51:58.296Z,6.38
2022-11-13T06:55:01.286Z,7.00
2022-11-13T06:58:02.929Z,7.10
2022-11-13T07:01:09.344Z,7.43
2022-11-13T07:04:12.467Z,7.43
2022-11-13T07:07:14.076Z,7.30
2022-11-13T07:10:15.952Z,7.75
2022-11-13T07:13:17.507Z,11.90
2022-11-13T07:16:19.583Z,10.85
2022-11-13T07:19:21.143Z,12.98
2022-11-13T07:22:22.666Z,13.70
2022-11-13T07:25:24.898Z,13.55
2022-11-13T07:28:26.764Z,13.00
2022-11-13T07:31:28.550Z,12.93
2022-11-13T07:34:30.151Z,12.60
2022-11-13T07:37:31.690Z,10.82
2022-11-13T07:40:33.360Z,9.95
2022-11-13T07:43:35.199Z,10.45
2022-11-13T07:46:37.353Z,10.23
2022-11-13T07:49:38.871Z,11.02
2022-11-13T07:52:40.400Z,10.98
2022-11-13T07:55:42.174Z,10.90
2022-11-13T07:58:43.772Z,11.35
2022-11-13T08:01:45.342Z,14.05
2022-11-13T08:04:46.887Z,11.68
2022-11-13T08:07:51.358Z,13.30
2022-11-13T08:10:53.144Z,13.23
2022-11-13T08:13:54.766Z,13.50
2022-11-13T08:16:56.531Z,12.82
2022-11-13T08:19:58.083Z,14.43
2022-11-13T08:23:01.118Z,13.38
2022-11-13T08:26:06.497Z,14.20
2022-11-13T08:29:08.241Z,15.80
2022-11-13T08:32:10.119Z,16.73
2022-11-13T08:35:15.958Z,14.85
2022-11-13T08:38:20.983Z,16.40
2022-11-13T08:41:22.591Z,17.85
2022-11-13T08:44:24.103Z,17.48
2022-11-13T08:47:29.601Z,18.55
2022-11-13T08:50:32.710Z,16.83
2022-11-13T08:53:34.243Z,15.15
2022-11-13T08:56:35.856Z,15.50
2022-11-13T08:59:37.613Z,16.58
2022-11-13T09:02:39.211Z,16.65
2022-11-13T09:05:40.743Z,15.88
2022-11-13T09:08:42.262Z,15.15
2022-11-13T09:11:46.365Z,14.65
2022-11-13T09:14:47.965Z,13.68
2022-11-13T09:17:49.513Z,13.55
2022-11-13T09:20:51.160Z,14.73
2022-11-13T09:23:52.689Z,13.63
2022-11-13T09:26:54.243Z,13.10
2022-11-13T09:29:55.949Z,13.93
2022-11-13T09:33:00.206Z,13.23
2022-11-13T09:36:02.008Z,11.73
2022-11-13T09:39:06.899Z,11.95
2022-11-13T09:42:19.954Z,12.02
2022-11-13T09:45:21.795Z,12.55
2022-11-13T09:48:36.917Z,14.32
2022-11-13T09:51:39.320Z,11.13
2022-11-13T09:54:41.118Z,10.80
2022-11-13T09:58:17.038Z,10.43
2022-11-13T10:01:58.070Z,10.15
2022-11-13T10:05:14.649Z,12.13
2022-11-13T10:08:18.435Z,12.63
2022-11-13T10:11:26.312Z,12.07
2022-11-13T10:14:46.263Z,12.73
2022-11-13T10:18:04.411Z,11.90
2022-11-13T10:21:17.270Z,13.20
2022-11-13T10:24:27.269Z,12.95
2022-11-13T10:27:28.860Z,12.82
2022-11-13T10:30:30.473Z,11.95
2022-11-13T10:33:34.338Z,10.10
2022-11-13T10:36:38.740Z,11.00
2022-11-13T10:39:44.686Z,9.18
2022-11-13T10:42:46.223Z,9.73
2022-11-13T10:45:56.793Z,9.45
2022-11-13T10:49:10.321Z,10.13
2022-11-13T10:52:29.830Z,22.33
2022-11-13T10:55:34.101Z,13.20
2022-11-13T10:58:35.606Z,15.20
2022-11-13T11:01:38.066Z,14.70
2022-11-13T11:04:39.653Z,14.45
2022-11-13T11:07:41.634Z,14.05
2022-11-13T11:11:11.935Z,12.80
2022-11-13T11:14:37.027Z,16.00
2022-11-13T11:17:52.021Z,14.43
2022-11-13T11:20:57.281Z,11.45
2022-11-13T11:24:06.258Z,12.02
2022-11-13T11:27:23.587Z,12.02
2022-11-13T11:30:27.593Z,12.10
2022-11-13T11:33:36.712Z,12.18
2022-11-13T11:37:19.943Z,11.57
2022-11-13T11:40:56.120Z,10.88
2022-11-13T11:44:05.591Z,10.75
2022-11-13T11:47:15.498Z,10.30
2022-11-13T11:50:26.911Z,11.98
2022-11-13T11:53:38.730Z,11.15
2022-11-13T11:56:52.143Z,13.18
2022-11-13T12:00:10.573Z,11.02
2022-11-13T12:03:47.231Z,11.82
2022-11-13T12:06:59.338Z,9.57
2022-11-13T12:10:19.532Z,9.65
2022-11-13T12:13:28.780Z,11.43
2022-11-13T12:17:00.227Z,10.05
2022-11-13T12:20:25.921Z,9.63
2022-11-13T12:23:35.190Z,9.45
2022-11-13T12:26:50.293Z,9.07
2022-11-13T12:30:07.409Z,9.10
2022-11-13T12:33:24.825Z,8.55
2022-11-13T12:36:27.415Z,8.95
2022-11-13T12:39:44.390Z,9.27
2022-11-13T12:42:49.279Z,8.93
2022-11-13T12:46:10.650Z,8.98
2022-11-13T12:49:30.451Z,9.13
2022-11-13T12:52:32.019Z,9.50
2022-11-13T12:55:35.997Z,8.70
2022-11-13T12:58:37.561Z,11.32
2022-11-13T13:01:48.605Z,8.43
2022-11-13T13:05:07.707Z,7.93
2022-11-13T13:08:32.042Z,9.63
2022-11-13T13:12:00.589Z,8.38
2022-11-13T13:15:29.482Z,9.57
2022-11-13T13:18:34.474Z,9.32
2022-11-13T13:21:45.825Z,8.02
2022-11-13T13:25:03.479Z,9.15
2022-11-13T13:28:08.005Z,11.20
2022-11-13T13:31:12.342Z,9.38
2022-11-13T13:34:38.290Z,11.55
2022-11-13T13:37:51.566Z,8.48
2022-11-13T13:41:00.526Z,10.10
2022-11-13T13:44:39.575Z,8.05
2022-11-13T13:47:47.213Z,7.40
2022-11-13T13:51:12.286Z,7.32
2022-11-13T13:54:22.284Z,6.68
2022-11-13T13:57:23.998Z,7.20
2022-11-13T14:00:26.175Z,7.22
2022-11-13T14:03:29.205Z,6.85
2022-11-13T14:06:31.875Z,7.70
2022-11-13T14:09:33.502Z,6.38
2022-11-13T14:12:35.014Z,6.63
2022-11-13T14:15:36.815Z,6.38
2022-11-13T14:18:38.331Z,7.03
2022-11-13T14:21:40.354Z,7.03
2022-11-13T14:24:56.409Z,7.28
2022-11-13T14:27:58.055Z,7.75
2022-11-13T14:31:06.222Z,7.20
2022-11-13T14:34:21.922Z,7.95
2022-11-13T14:37:29.521Z,7.45
2022-11-13T14:40:33.843Z,8.15
2022-11-13T14:43:35.604Z,8.23
2022-11-13T14:46:44.183Z,9.02
2022-11-13T14:49:45.717Z,9.38
2022-11-13T14:53:25.205Z,9.73
2022-11-13T14:56:36.006Z,9.18
2022-11-13T14:59:42.345Z,9.70
2022-11-13T15:02:44.534Z,9.07
2022-11-13T15:05:46.129Z,10.10
2022-11-13T15:08:54.093Z,9.85
2022-11-13T15:11:55.667Z,10.10
2022-11-13T15:14:57.199Z,9.40
2022-11-13T15:17:58.872Z,9.20
2022-11-13T15:21:00.433Z,9.30
2022-11-13T15:24:02.050Z,8.80
2022-11-13T15:27:03.767Z,8.90
2022-11-13T15:30:05.683Z,9.77
2022-11-13T15:33:16.093Z,8.55
2022-11-13T15:36:17.742Z,9.70
2022-11-13T15:39:24.074Z,13.73
2022-11-13T15:42:35.929Z,10.80
2022-11-13T15:45:42.762Z,14.27
2022-11-13T15:48:46.508Z,12.98
2022-11-13T15:51:48.087Z,11.23
2022-11-13T15:54:50.280Z,10.95
2022-11-13T15:57:52.219Z,10.35
2022-11-13T16:00:53.855Z,11.20
2022-11-13T16:03:58.098Z,10.70
2022-11-13T16:06:59.727Z,12.10
2022-11-13T16:10:01.381Z,14.85
2022-11-13T16:13:03.459Z,13.48
2022-11-13T16:16:05.473Z,14.63
2022-11-13T16:19:13.210Z,12.88
2022-11-13T16:22:21.880Z,13.23
2022-11-13T16:25:32.245Z,12.25
2022-11-13T16:28:41.966Z,12.40
2022-11-13T16:31:54.589Z,11.88
2022-11-13T16:34:57.309Z,12.02
2022-11-13T16:37:58.816Z,13.38
2022-11-13T16:41:00.399Z,11.82
2022-11-13T16:44:01.953Z,11.00
2022-11-13T16:47:05.140Z,12.20
2022-11-13T16:50:24.479Z,10.88
2022-11-13T16:53:26.374Z,12.73
2022-11-13T16:56:30.061Z,14.38
2022-11-13T16:59:32.965Z,13.98
2022-11-13T17:02:34.666Z,13.57
2022-11-13T17:05:36.288Z,12.80
2022-11-13T17:08:37.989Z,14.10
2022-11-13T17:11:39.693Z,13.40
2022-11-13T17:14:41.406Z,14.15
2022-11-13T17:17:42.955Z,19.05
2022-11-13T17:20:44.893Z,16.55
2022-11-13T17:23:46.592Z,16.05
2022-11-13T17:26:48.108Z,15.80
2022-11-13T17:29:49.775Z,19.08
2022-11-13T17:32:51.310Z,18.23
2022-11-13T17:35:56.665Z,11.88
2022-11-13T17:38:58.311Z,12.10
2022-11-13T17:42:01.069Z,13.23
2022-11-13T17:45:02.687Z,10.98
2022-11-13T17:48:04.622Z,10.40
2022-11-13T17:51:07.566Z,9.35
2022-11-13T17:54:09.210Z,9.95
2022-11-13T17:57:11.320Z,8.15
2022-11-13T18:00:13.348Z,7.47
2022-11-13T18:03:14.930Z,7.47
2022-11-13T18:06:20.242Z,7.15
2022-11-13T18:09:21.820Z,8.05
2022-11-13T18:12:23.497Z,8.82
2022-11-13T18:15:25.320Z,7.88
2022-11-13T18:18:26.862Z,8.35
2022-11-13T18:21:30.952Z,8.30
2022-11-13T18:24:32.597Z,8.57
2022-11-13T18:27:34.423Z,8.88
2022-11-13T18:30:39.337Z,10.38
2022-11-13T18:33:41.087Z,9.80
2022-11-13T18:36:42.828Z,10.13
2022-11-13T18:39:44.403Z,12.85
2022-11-13T18:42:46.040Z,12.60
2022-11-13T18:45:59.704Z,12.40
2022-11-13T18:49:01.269Z,12.82
2022-11-13T18:52:03.301Z,10.05
2022-11-13T18:55:05.202Z,8.80
2022-11-13T18:58:06.792Z,8.73
2022-11-13T19:01:22.848Z,8.80
2022-11-13T19:04:24.847Z,9.30
2022-11-13T19:07:26.452Z,8.63
2022-11-13T19:10:28.057Z,9.18
2022-11-13T19:13:29.583Z,8.80
2022-11-13T19:16:34.373Z,8.48
2022-11-13T19:19:36.255Z,9.13
2022-11-13T19:22:37.897Z,8.55
2022-11-13T19:25:39.572Z,9.32
2022-11-13T19:28:41.941Z,9.93
2022-11-13T19:31:46.440Z,10.30
2022-11-13T19:34:48.072Z,11.13
2022-11-13T19:37:56.554Z,12.55
2022-11-13T19:40:58.161Z,20.00
2022-11-13T19:44:00.292Z,12.52
2022-11-13T19:47:01.863Z,12.60
2022-11-13T19:50:03.604Z,11.55
2022-11-13T19:53:06.410Z,11.13
2022-11-13T19:56:08.209Z,10.93
2022-11-13T19:59:11.460Z,11.73
2022-11-13T20:02:14.231Z,12.15
2022-11-13T20:05:15.893Z,11.93
2022-11-13T20:08:17.443Z,12.15
2022-11-13T20:11:19.229Z,11.48
2022-11-13T20:14:20.804Z,11.95
2022-11-13T20:17:23.045Z,12.27
2022-11-13T20:20:24.574Z,12.85
2022-11-13T20:23:26.399Z,12.52
2022-11-13T20:26:28.284Z,12.35
2022-11-13T20:29:32.200Z,12.40
2022-11-13T20:32:38.076Z,12.30
2022-11-13T20:35:41.327Z,13.10
2022-11-13T20:38:46.897Z,12.98
2022-11-13T20:41:48.499Z,11.65
2022-11-13T20:44:50.036Z,12.05
2022-11-13T20:47:51.615Z,11.98
2022-11-13T20:50:53.124Z,12.02
2022-11-13T20:53:55.277Z,11.02
2022-11-13T20:56:56.916Z,12.63
2022-11-13T20:59:58.758Z,11.98
2022-11-13T21:03:00.447Z,11.98
2022-11-13T21:06:07.113Z,12.85
2022-11-13T21:09:09.306Z,12.45
2022-11-13T21:12:10.830Z,11.27
2022-11-13T21:15:12.478Z,12.38
2022-11-13T21:18:14.069Z,11.20
2022-11-13T21:21:19.405Z,12.10
2022-11-13T21:24:21.073Z,11.85
2022-11-13T21:27:28.042Z,17.33
2022-11-13T21:30:29.672Z,19.02
2022-11-13T21:33:39.237Z,19.80
2022-11-13T21:36:40.836Z,17.95
2022-11-13T21:39:42.453Z,18.10
2022-11-13T21:42:44.008Z,16.80
2022-11-13T21:45:45.582Z,16.42
2022-11-13T21:48:47.955Z,15.27
2022-11-13T21:51:49.542Z,15.93
2022-11-13T21:54:51.333Z,16.35
2022-11-13T21:57:52.851Z,18.00
2022-11-13T22:00:55.721Z,19.73
2022-11-13T22:03:57.537Z,21.13
2022-11-13T22:06:59.178Z,20.58
2022-11-13T22:10:04.176Z,19.08
2022-11-13T22:13:09.696Z,20.38
2022-11-13T22:16:12.621Z,18.27
2022-11-13T22:19:21.413Z,17.48
2022-11-13T22:22:29.471Z,16.20
2022-11-13T22:25:31.015Z,14.98
2022-11-13T22:28:34.313Z,15.32
2022-11-13T22:31:36.324Z,15.00
2022-11-13T22:34:37.877Z,13.48
2022-11-13T22:37:39.531Z,15.43
2022-11-13T22:40:41.084Z,14.75
2022-11-13T22:43:43.969Z,15.52
2022-11-13T22:46:45.604Z,15.90
2022-11-13T22:49:47.397Z,15.15
2022-11-13T22:52:48.950Z,16.50
2022-11-13T22:55:50.546Z,15.25
2022-11-13T22:58:53.918Z,15.07
2022-11-13T23:01:58.643Z,13.27
2022-11-13T23:05:00.177Z,14.20
2022-11-13T23:08:01.740Z,13.57
2022-11-13T23:11:03.493Z,13.88
2022-11-13T23:14:08.027Z,13.45
2022-11-13T23:17:12.526Z,15.00
2022-11-13T23:20:14.550Z,14.00
2022-11-13T23:23:19.409Z,14.35
2022-11-13T23:26:21.625Z,13.40
2022-11-13T23:29:23.639Z,14.38
2022-11-13T23:32:25.267Z,13.93
2022-11-13T23:35:27.136Z,14.48
2022-11-13T23:38:29.044Z,13.80
2022-11-13T23:41:30.932Z,13.05
2022-11-13T23:44:32.527Z,12.88
2022-11-13T23:47:34.114Z,13.38
2022-11-13T23:50:36.638Z,13.10
2022-11-13T23:53:38.237Z,13.40
2022-11-13T23:56:39.843Z,13.30
2022-11-13T23:59:41.398Z,13.13
